sensor_id;sensor_type;location;lat;lon;timestamp;temperature;humidity
52397;DHT22;38322;53.108;6.308;2023-07-29T05:03:05;17.20;99.90
52397;DHT22;38322;53.108;6.308;2023-07-29T05:05:32;17.10;99.90
52397;DHT22;38322;53.108;6.308;2023-07-29T05:07:58;17.10;99.90
52397;DHT22;38322;53.108;6.308;2023-07-29T05:10:24;17.10;99.90
52397;DHT22;38322;53.108;6.308;2023-07-29T05:12:50;17.20;99.90
52397;DHT22;38322;53.108;6.308;2023-07-29T05:15:16;17.20;99.90
52397;DHT22;38322;53.108;6.308;2023-07-29T05:17:42;17.20;99.90
52397;DHT22;38322;53.108;6.308;2023-07-29T05:20:08;17.20;99.90
52397;DHT22;38322;53.108;6.308;2023-07-29T05:22:34;17.20;99.90
52397;DHT22;38322;53.108;6.308;2023-07-29T05:25:00;17.30;99.90
52397;DHT22;38322;53.108;6.308;2023-07-29T05:27:25;17.30;99.90
52397;DHT22;38322;53.108;6.308;2023-07-29T05:29:51;17.30;99.90
52397;DHT22;38322;53.108;6.308;2023-07-29T05:32:17;17.30;99.90
52397;DHT22;38322;53.108;6.308;2023-07-29T05:34:43;17.30;99.90
52397;DHT22;38322;53.108;6.308;2023-07-29T05:37:09;17.40;99.90
52397;DHT22;38322;53.108;6.308;2023-07-29T05:39:35;17.40;99.90
52397;DHT22;38322;53.108;6.308;2023-07-29T05:42:01;17.40;99.90
52397;DHT22;38322;53.108;6.308;2023-07-29T05:44:30;17.40;99.90
52397;DHT22;38322;53.108;6.308;2023-07-29T05:46:58;17.40;99.90
52397;DHT22;38322;53.108;6.308;2023-07-29T05:49:24;17.40;99.90
52397;DHT22;38322;53.108;6.308;2023-07-29T05:51:50;17.40;99.90
52397;DHT22;38322;53.108;6.308;2023-07-29T05:54:18;17.50;99.90
52397;DHT22;38322;53.108;6.308;2023-07-29T05:56:44;17.50;99.90
52397;DHT22;38322;53.108;6.308;2023-07-29T05:59:10;17.50;99.90
52397;DHT22;38322;53.108;6.308;2023-07-29T06:01:36;17.50;99.90
52397;DHT22;38322;53.108;6.308;2023-07-29T06:04:02;17.50;99.90
52397;DHT22;38322;53.108;6.308;2023-07-29T06:06:28;17.50;99.90
52397;DHT22;38322;53.108;6.308;2023-07-29T06:08:53;17.60;99.90
52397;DHT22;38322;53.108;6.308;2023-07-29T06:11:19;17.60;99.90
52397;DHT22;38322;53.108;6.308;2023-07-29T06:13:47;17.60;99.90
52397;DHT22;38322;53.108;6.308;2023-07-29T06:16:13;17.60;99.90
52397;DHT22;38322;53.108;6.308;2023-07-29T06:18:38;17.60;99.90
52397;DHT22;38322;53.108;6.308;2023-07-29T06:21:04;17.70;99.90
52397;DHT22;38322;53.108;6.308;2023-07-29T06:23:33;17.80;99.90
52397;DHT22;38322;53.108;6.308;2023-07-29T06:25:59;17.90;99.90
52397;DHT22;38322;53.108;6.308;2023-07-29T06:28:26;17.90;99.90
52397;DHT22;38322;53.108;6.308;2023-07-29T06:30:52;17.90;99.90
52397;DHT22;38322;53.108;6.308;2023-07-29T06:33:18;18.00;99.90
52397;DHT22;38322;53.108;6.308;2023-07-29T06:35:44;18.00;99.90
52397;DHT22;38322;53.108;6.308;2023-07-29T06:38:10;18.00;99.90
52397;DHT22;38322;53.108;6.308;2023-07-29T06:40:36;18.00;99.90
52397;DHT22;38322;53.108;6.308;2023-07-29T06:43:02;18.10;99.90
52397;DHT22;38322;53.108;6.308;2023-07-29T06:45:28;18.10;99.90
52397;DHT22;38322;53.108;6.308;2023-07-29T06:47:53;18.20;99.90
52397;DHT22;38322;53.108;6.308;2023-07-29T06:50:19;18.10;99.90
52397;DHT22;38322;53.108;6.308;2023-07-29T06:52:45;18.20;99.90
52397;DHT22;38322;53.108;6.308;2023-07-29T06:55:11;18.30;99.90
52397;DHT22;38322;53.108;6.308;2023-07-29T06:57:37;18.30;99.90
52397;DHT22;38322;53.108;6.308;2023-07-29T07:00:03;18.40;99.90
52397;DHT22;38322;53.108;6.308;2023-07-29T07:02:29;18.40;99.90
52397;DHT22;38322;53.108;6.308;2023-07-29T07:04:55;18.50;99.90
52397;DHT22;38322;53.108;6.308;2023-07-29T07:07:21;18.50;99.90
52397;DHT22;38322;53.108;6.308;2023-07-29T07:09:47;18.50;99.90
52397;DHT22;38322;53.108;6.308;2023-07-29T07:12:13;18.50;99.90
52397;DHT22;38322;53.108;6.308;2023-07-29T07:14:39;18.60;99.90
52397;DHT22;38322;53.108;6.308;2023-07-29T07:17:05;18.60;99.90
52397;DHT22;38322;53.108;6.308;2023-07-29T07:19:31;18.60;99.90
52397;DHT22;38322;53.108;6.308;2023-07-29T07:21:56;18.60;99.90
52397;DHT22;38322;53.108;6.308;2023-07-29T07:24:22;18.60;99.90
52397;DHT22;38322;53.108;6.308;2023-07-29T07:26:48;18.70;99.90
52397;DHT22;38322;53.108;6.308;2023-07-29T07:29:14;18.70;99.90
52397;DHT22;38322;53.108;6.308;2023-07-29T07:31:40;18.70;99.90
52397;DHT22;38322;53.108;6.308;2023-07-29T07:34:06;18.80;99.90
52397;DHT22;38322;53.108;6.308;2023-07-29T07:36:32;18.80;99.90
52397;DHT22;38322;53.108;6.308;2023-07-29T07:38:57;18.80;99.90
52397;DHT22;38322;53.108;6.308;2023-07-29T07:41:23;18.80;99.90
52397;DHT22;38322;53.108;6.308;2023-07-29T07:43:49;18.80;99.90
52397;DHT22;38322;53.108;6.308;2023-07-29T07:46:15;18.90;99.90
52397;DHT22;38322;53.108;6.308;2023-07-29T07:48:41;19.00;99.90
52397;DHT22;38322;53.108;6.308;2023-07-29T07:51:13;19.10;99.90
52397;DHT22;38322;53.108;6.308;2023-07-29T07:53:39;19.20;99.90
52397;DHT22;38322;53.108;6.308;2023-07-29T07:56:06;19.20;99.90
52397;DHT22;38322;53.108;6.308;2023-07-29T07:58:32;19.20;99.90
52397;DHT22;38322;53.108;6.308;2023-07-29T08:01:06;19.30;99.90
52397;DHT22;38322;53.108;6.308;2023-07-29T08:03:32;19.20;99.90
52397;DHT22;38322;53.108;6.308;2023-07-29T08:05:59;19.30;99.90
52397;DHT22;38322;53.108;6.308;2023-07-29T08:08:28;19.40;99.90
52397;DHT22;38322;53.108;6.308;2023-07-29T08:10:55;19.30;99.90
52397;DHT22;38322;53.108;6.308;2023-07-29T08:13:22;19.30;99.90
52397;DHT22;38322;53.108;6.308;2023-07-29T08:15:49;19.30;99.90
52397;DHT22;38322;53.108;6.308;2023-07-29T08:18:16;19.40;99.90
52397;DHT22;38322;53.108;6.308;2023-07-29T08:21:02;19.50;99.90
52397;DHT22;38322;53.108;6.308;2023-07-29T08:23:30;19.70;99.90
52397;DHT22;38322;53.108;6.308;2023-07-29T08:25:58;19.80;99.90
52397;DHT22;38322;53.108;6.308;2023-07-29T08:28:34;19.90;99.90
52397;DHT22;38322;53.108;6.308;2023-07-29T08:31:01;20.00;99.90
52397;DHT22;38322;53.108;6.308;2023-07-29T08:33:27;19.90;99.90
52397;DHT22;38322;53.108;6.308;2023-07-29T08:35:53;19.90;99.90
52397;DHT22;38322;53.108;6.308;2023-07-29T08:38:20;19.70;99.90
52397;DHT22;38322;53.108;6.308;2023-07-29T08:40:50;19.50;99.90
52397;DHT22;38322;53.108;6.308;2023-07-29T08:43:19;19.50;99.90
52397;DHT22;38322;53.108;6.308;2023-07-29T08:45:46;19.50;99.90
52397;DHT22;38322;53.108;6.308;2023-07-29T08:48:13;19.60;99.90
52397;DHT22;38322;53.108;6.308;2023-07-29T08:50:44;19.70;99.90
52397;DHT22;38322;53.108;6.308;2023-07-29T08:53:10;19.80;99.90
52397;DHT22;38322;53.108;6.308;2023-07-29T08:55:37;19.80;99.90
52397;DHT22;38322;53.108;6.308;2023-07-29T08:58:04;19.80;99.90
52397;DHT22;38322;53.108;6.308;2023-07-29T09:00:31;19.80;99.90
52397;DHT22;38322;53.108;6.308;2023-07-29T09:02:57;19.80;99.90
52397;DHT22;38322;53.108;6.308;2023-07-29T09:05:27;19.80;99.90
52397;DHT22;38322;53.108;6.308;2023-07-29T09:07:53;19.70;99.90
52397;DHT22;38322;53.108;6.308;2023-07-29T09:10:22;19.70;99.90
52397;DHT22;38322;53.108;6.308;2023-07-29T09:12:49;19.80;99.90
52397;DHT22;38322;53.108;6.308;2023-07-29T09:15:27;19.90;99.90
52397;DHT22;38322;53.108;6.308;2023-07-29T09:17:53;20.20;99.90
52397;DHT22;38322;53.108;6.308;2023-07-29T09:20:29;20.40;99.90
52397;DHT22;38322;53.108;6.308;2023-07-29T09:22:58;20.50;99.90
52397;DHT22;38322;53.108;6.308;2023-07-29T09:25:28;20.40;99.90
52397;DHT22;38322;53.108;6.308;2023-07-29T09:28:01;20.30;99.90
52397;DHT22;38322;53.108;6.308;2023-07-29T09:30:27;20.40;99.90
52397;DHT22;38322;53.108;6.308;2023-07-29T09:32:57;20.50;99.90
52397;DHT22;38322;53.108;6.308;2023-07-29T09:35:24;20.60;99.90
52397;DHT22;38322;53.108;6.308;2023-07-29T09:37:51;20.60;99.90
52397;DHT22;38322;53.108;6.308;2023-07-29T09:40:18;20.60;99.90
52397;DHT22;38322;53.108;6.308;2023-07-29T09:42:51;20.60;99.90
52397;DHT22;38322;53.108;6.308;2023-07-29T09:45:36;20.60;99.90
52397;DHT22;38322;53.108;6.308;2023-07-29T09:48:03;20.60;99.90
52397;DHT22;38322;53.108;6.308;2023-07-29T09:50:30;20.60;99.90
52397;DHT22;38322;53.108;6.308;2023-07-29T09:52:57;20.60;99.90
52397;DHT22;38322;53.108;6.308;2023-07-29T09:55:26;20.60;99.90
52397;DHT22;38322;53.108;6.308;2023-07-29T09:57:59;20.50;99.90
52397;DHT22;38322;53.108;6.308;2023-07-29T10:00:31;20.70;99.90
52397;DHT22;38322;53.108;6.308;2023-07-29T10:02:58;20.70;99.90
52397;DHT22;38322;53.108;6.308;2023-07-29T10:05:28;20.60;99.90
52397;DHT22;38322;53.108;6.308;2023-07-29T10:07:56;20.60;99.90
52397;DHT22;38322;53.108;6.308;2023-07-29T10:10:22;20.60;99.90
52397;DHT22;38322;53.108;6.308;2023-07-29T10:12:48;20.60;99.90
52397;DHT22;38322;53.108;6.308;2023-07-29T10:15:15;20.70;99.90
52397;DHT22;38322;53.108;6.308;2023-07-29T10:17:41;20.80;99.90
52397;DHT22;38322;53.108;6.308;2023-07-29T10:20:08;20.90;99.90
52397;DHT22;38322;53.108;6.308;2023-07-29T10:22:39;20.90;99.90
52397;DHT22;38322;53.108;6.308;2023-07-29T10:28:11;21.00;99.90
52397;DHT22;38322;53.108;6.308;2023-07-29T10:30:30;21.00;99.90
52397;DHT22;38322;53.108;6.308;2023-07-29T10:32:59;20.80;99.90
52397;DHT22;38322;53.108;6.308;2023-07-29T10:35:27;20.90;99.90
52397;DHT22;38322;53.108;6.308;2023-07-29T10:37:53;21.10;99.90
52397;DHT22;38322;53.108;6.308;2023-07-29T10:40:20;21.30;99.90
52397;DHT22;38322;53.108;6.308;2023-07-29T10:43:06;21.50;99.90
52397;DHT22;38322;53.108;6.308;2023-07-29T10:45:39;21.40;99.90
52397;DHT22;38322;53.108;6.308;2023-07-29T10:54:00;21.30;99.90
52397;DHT22;38322;53.108;6.308;2023-07-29T10:58:56;20.70;99.90
52397;DHT22;38322;53.108;6.308;2023-07-29T11:01:28;20.60;99.90
52397;DHT22;38322;53.108;6.308;2023-07-29T11:09:51;21.10;99.90
52397;DHT22;38322;53.108;6.308;2023-07-29T11:15:18;21.20;99.90
52397;DHT22;38322;53.108;6.308;2023-07-29T11:17:47;21.40;99.90
52397;DHT22;38322;53.108;6.308;2023-07-29T11:20:14;21.20;99.90
52397;DHT22;38322;53.108;6.308;2023-07-29T11:22:41;21.30;99.90
52397;DHT22;38322;53.108;6.308;2023-07-29T11:25:09;21.30;99.90
52397;DHT22;38322;53.108;6.308;2023-07-29T11:27:35;21.40;99.90
52397;DHT22;38322;53.108;6.308;2023-07-29T11:30:04;21.20;99.90
52397;DHT22;38322;53.108;6.308;2023-07-29T11:32:34;21.10;99.90
52397;DHT22;38322;53.108;6.308;2023-07-29T11:35:05;21.10;99.90
52397;DHT22;38322;53.108;6.308;2023-07-29T11:37:33;21.10;99.90
52397;DHT22;38322;53.108;6.308;2023-07-29T11:40:00;21.10;99.90
52397;DHT22;38322;53.108;6.308;2023-07-29T11:42:26;21.00;99.90
52397;DHT22;38322;53.108;6.308;2023-07-29T11:44:56;21.00;99.90
52397;DHT22;38322;53.108;6.308;2023-07-29T11:47:21;21.00;99.90
52397;DHT22;38322;53.108;6.308;2023-07-29T11:49:47;20.80;99.90
52397;DHT22;38322;53.108;6.308;2023-07-29T11:52:13;20.70;99.90
52397;DHT22;38322;53.108;6.308;2023-07-29T11:54:40;20.70;99.90
52397;DHT22;38322;53.108;6.308;2023-07-29T11:57:09;20.70;99.90
52397;DHT22;38322;53.108;6.308;2023-07-29T11:59:36;20.80;99.90
52397;DHT22;38322;53.108;6.308;2023-07-29T12:02:13;20.80;99.90
52397;DHT22;38322;53.108;6.308;2023-07-29T12:04:40;20.70;99.90
52397;DHT22;38322;53.108;6.308;2023-07-29T12:07:07;20.70;99.90
52397;DHT22;38322;53.108;6.308;2023-07-29T12:09:34;20.80;99.90
52397;DHT22;38322;53.108;6.308;2023-07-29T12:12:02;21.10;99.90
52397;DHT22;38322;53.108;6.308;2023-07-29T12:14:31;21.30;99.90
52397;DHT22;38322;53.108;6.308;2023-07-29T12:17:00;21.20;99.90
52397;DHT22;38322;53.108;6.308;2023-07-29T12:19:35;21.10;99.90
52397;DHT22;38322;53.108;6.308;2023-07-29T12:22:05;21.00;99.90
52397;DHT22;38322;53.108;6.308;2023-07-29T12:24:32;20.90;99.90
52397;DHT22;38322;53.108;6.308;2023-07-29T12:26:59;20.80;99.90
52397;DHT22;38322;53.108;6.308;2023-07-29T12:29:25;20.50;99.90
52397;DHT22;38322;53.108;6.308;2023-07-29T12:32:03;20.40;99.90
52397;DHT22;38322;53.108;6.308;2023-07-29T12:34:30;20.60;99.90
52397;DHT22;38322;53.108;6.308;2023-07-29T12:36:58;20.80;99.90
52397;DHT22;38322;53.108;6.308;2023-07-29T12:39:28;20.90;99.90
52397;DHT22;38322;53.108;6.308;2023-07-29T12:41:56;20.80;99.90
52397;DHT22;38322;53.108;6.308;2023-07-29T12:44:24;20.80;99.90
52397;DHT22;38322;53.108;6.308;2023-07-29T12:46:50;20.70;99.90
52397;DHT22;38322;53.108;6.308;2023-07-29T12:49:17;20.70;99.90
52397;DHT22;38322;53.108;6.308;2023-07-29T12:51:43;20.60;99.90
52397;DHT22;38322;53.108;6.308;2023-07-29T12:54:09;20.50;99.90
52397;DHT22;38322;53.108;6.308;2023-07-29T12:56:35;20.30;99.90
52397;DHT22;38322;53.108;6.308;2023-07-29T12:59:02;20.20;99.90
52397;DHT22;38322;53.108;6.308;2023-07-29T13:01:29;20.10;99.90
52397;DHT22;38322;53.108;6.308;2023-07-29T13:03:55;20.00;99.90
52397;DHT22;38322;53.108;6.308;2023-07-29T13:06:22;20.00;99.90
52397;DHT22;38322;53.108;6.308;2023-07-29T13:08:49;20.10;99.90
52397;DHT22;38322;53.108;6.308;2023-07-29T13:11:16;20.60;99.90
52397;DHT22;38322;53.108;6.308;2023-07-29T13:13:42;20.80;99.90
52397;DHT22;38322;53.108;6.308;2023-07-29T13:16:08;20.80;99.90
52397;DHT22;38322;53.108;6.308;2023-07-29T13:18:34;20.70;99.90
52397;DHT22;38322;53.108;6.308;2023-07-29T13:21:00;20.50;99.90
52397;DHT22;38322;53.108;6.308;2023-07-29T13:23:27;20.30;99.90
52397;DHT22;38322;53.108;6.308;2023-07-29T13:25:55;20.30;99.90
52397;DHT22;38322;53.108;6.308;2023-07-29T13:28:21;20.10;99.90
52397;DHT22;38322;53.108;6.308;2023-07-29T13:30:47;20.00;99.90
52397;DHT22;38322;53.108;6.308;2023-07-29T13:33:13;19.80;99.90
52397;DHT22;38322;53.108;6.308;2023-07-29T13:35:39;19.70;99.90
52397;DHT22;38322;53.108;6.308;2023-07-29T13:38:05;19.60;99.90
52397;DHT22;38322;53.108;6.308;2023-07-29T13:40:31;19.60;99.90
52397;DHT22;38322;53.108;6.308;2023-07-29T13:42:57;19.70;99.90
52397;DHT22;38322;53.108;6.308;2023-07-29T13:45:23;19.90;99.90
52397;DHT22;38322;53.108;6.308;2023-07-29T13:47:50;20.10;99.90
52397;DHT22;38322;53.108;6.308;2023-07-29T13:50:19;20.60;99.90
52397;DHT22;38322;53.108;6.308;2023-07-29T13:52:45;21.00;99.90
52397;DHT22;38322;53.108;6.308;2023-07-29T13:55:11;21.40;99.90
52397;DHT22;38322;53.108;6.308;2023-07-29T13:57:38;21.60;99.90
52397;DHT22;38322;53.108;6.308;2023-07-29T14:00:07;21.80;99.90
52397;DHT22;38322;53.108;6.308;2023-07-29T14:02:33;21.70;99.90
52397;DHT22;38322;53.108;6.308;2023-07-29T14:04:59;21.80;99.90
52397;DHT22;38322;53.108;6.308;2023-07-29T14:07:25;22.00;99.90
52397;DHT22;38322;53.108;6.308;2023-07-29T14:09:51;22.20;99.90
52397;DHT22;38322;53.108;6.308;2023-07-29T14:12:17;22.30;99.90
52397;DHT22;38322;53.108;6.308;2023-07-29T14:14:42;22.30;99.90
52397;DHT22;38322;53.108;6.308;2023-07-29T14:17:08;22.40;99.90
52397;DHT22;38322;53.108;6.308;2023-07-29T14:19:36;22.60;99.90
52397;DHT22;38322;53.108;6.308;2023-07-29T14:22:02;22.70;99.90
52397;DHT22;38322;53.108;6.308;2023-07-29T14:24:27;22.40;99.90
52397;DHT22;38322;53.108;6.308;2023-07-29T14:26:53;22.40;99.90
52397;DHT22;38322;53.108;6.308;2023-07-29T14:29:19;22.20;99.90
52397;DHT22;38322;53.108;6.308;2023-07-29T14:31:45;21.90;99.90
52397;DHT22;38322;53.108;6.308;2023-07-29T14:34:11;21.70;99.90
52397;DHT22;38322;53.108;6.308;2023-07-29T14:36:37;21.60;99.90
52397;DHT22;38322;53.108;6.308;2023-07-29T14:39:03;21.80;99.90
52397;DHT22;38322;53.108;6.308;2023-07-29T14:41:30;21.80;99.90
52397;DHT22;38322;53.108;6.308;2023-07-29T14:43:56;21.80;99.90
52397;DHT22;38322;53.108;6.308;2023-07-29T14:46:21;22.00;99.90
52397;DHT22;38322;53.108;6.308;2023-07-29T14:48:47;22.10;99.90
52397;DHT22;38322;53.108;6.308;2023-07-29T14:51:14;22.40;99.90
52397;DHT22;38322;53.108;6.308;2023-07-29T14:53:40;22.70;99.90
52397;DHT22;38322;53.108;6.308;2023-07-29T14:56:06;22.90;99.90
52397;DHT22;38322;53.108;6.308;2023-07-29T14:58:31;23.10;99.90
52397;DHT22;38322;53.108;6.308;2023-07-29T15:00:57;23.30;99.90
52397;DHT22;38322;53.108;6.308;2023-07-29T15:03:24;23.50;99.90
52397;DHT22;38322;53.108;6.308;2023-07-29T15:05:50;23.50;99.90
52397;DHT22;38322;53.108;6.308;2023-07-29T15:08:16;23.50;99.90
52397;DHT22;38322;53.108;6.308;2023-07-29T15:10:49;23.60;99.90
52397;DHT22;38322;53.108;6.308;2023-07-29T15:13:15;23.80;99.90
52397;DHT22;38322;53.108;6.308;2023-07-29T15:15:44;23.90;99.90
52397;DHT22;38322;53.108;6.308;2023-07-29T15:18:10;23.60;99.90
52397;DHT22;38322;53.108;6.308;2023-07-29T15:20:36;23.60;99.90
52397;DHT22;38322;53.108;6.308;2023-07-29T15:23:02;23.50;99.90
52397;DHT22;38322;53.108;6.308;2023-07-29T15:25:28;23.60;99.90
52397;DHT22;38322;53.108;6.308;2023-07-29T15:27:54;23.80;99.90
52397;DHT22;38322;53.108;6.308;2023-07-29T15:30:20;24.00;99.90
52397;DHT22;38322;53.108;6.308;2023-07-29T15:32:46;24.10;99.90
52397;DHT22;38322;53.108;6.308;2023-07-29T15:35:12;24.10;99.90
52397;DHT22;38322;53.108;6.308;2023-07-29T15:37:38;24.30;99.90
52397;DHT22;38322;53.108;6.308;2023-07-29T15:40:05;24.30;99.90
52397;DHT22;38322;53.108;6.308;2023-07-29T15:42:32;24.20;99.90
52397;DHT22;38322;53.108;6.308;2023-07-29T15:44:57;24.20;99.90
52397;DHT22;38322;53.108;6.308;2023-07-29T15:47:23;24.20;99.90
52397;DHT22;38322;53.108;6.308;2023-07-29T15:49:50;24.30;99.90
52397;DHT22;38322;53.108;6.308;2023-07-29T15:52:16;24.50;99.90
52397;DHT22;38322;53.108;6.308;2023-07-29T15:54:43;24.50;99.90
52397;DHT22;38322;53.108;6.308;2023-07-29T15:57:09;24.50;99.90
52397;DHT22;38322;53.108;6.308;2023-07-29T15:59:35;24.60;99.90
52397;DHT22;38322;53.108;6.308;2023-07-29T16:02:01;24.70;99.90
52397;DHT22;38322;53.108;6.308;2023-07-29T16:04:27;24.90;99.90
52397;DHT22;38322;53.108;6.308;2023-07-29T16:06:53;24.80;99.90
52397;DHT22;38322;53.108;6.308;2023-07-29T16:09:22;24.90;99.90
52397;DHT22;38322;53.108;6.308;2023-07-29T16:11:48;24.90;99.90
52397;DHT22;38322;53.108;6.308;2023-07-29T16:14:14;25.10;99.90
52397;DHT22;38322;53.108;6.308;2023-07-29T16:16:41;25.10;99.90
52397;DHT22;38322;53.108;6.308;2023-07-29T16:19:07;24.80;99.90
52397;DHT22;38322;53.108;6.308;2023-07-29T16:21:35;24.40;99.90
52397;DHT22;38322;53.108;6.308;2023-07-29T16:24:01;23.80;99.90
52397;DHT22;38322;53.108;6.308;2023-07-29T16:26:27;23.50;99.90
52397;DHT22;38322;53.108;6.308;2023-07-29T16:28:53;23.10;99.90
52397;DHT22;38322;53.108;6.308;2023-07-29T16:31:20;22.90;99.90
52397;DHT22;38322;53.108;6.308;2023-07-29T16:33:46;22.60;99.90
52397;DHT22;38322;53.108;6.308;2023-07-29T16:36:12;22.40;99.90
52397;DHT22;38322;53.108;6.308;2023-07-29T16:38:37;22.70;99.90
52397;DHT22;38322;53.108;6.308;2023-07-29T16:41:03;22.90;99.90
52397;DHT22;38322;53.108;6.308;2023-07-29T16:43:29;23.10;99.90
52397;DHT22;38322;53.108;6.308;2023-07-29T16:45:55;23.20;99.90
52397;DHT22;38322;53.108;6.308;2023-07-29T16:48:22;23.20;99.90
52397;DHT22;38322;53.108;6.308;2023-07-29T16:50:48;22.80;99.90
52397;DHT22;38322;53.108;6.308;2023-07-29T16:53:13;23.20;99.90
52397;DHT22;38322;53.108;6.308;2023-07-29T16:55:39;23.60;99.90
52397;DHT22;38322;53.108;6.308;2023-07-29T16:58:06;24.00;99.90
52397;DHT22;38322;53.108;6.308;2023-07-29T17:00:32;24.50;99.90
52397;DHT22;38322;53.108;6.308;2023-07-29T17:02:58;24.40;99.90
52397;DHT22;38322;53.108;6.308;2023-07-29T17:05:24;24.60;99.90
52397;DHT22;38322;53.108;6.308;2023-07-29T17:07:50;24.40;99.90
52397;DHT22;38322;53.108;6.308;2023-07-29T17:10:16;24.20;99.90
52397;DHT22;38322;53.108;6.308;2023-07-29T17:12:41;23.90;99.90
52397;DHT22;38322;53.108;6.308;2023-07-29T17:15:08;23.90;99.90
52397;DHT22;38322;53.108;6.308;2023-07-29T17:17:34;23.90;99.90
52397;DHT22;38322;53.108;6.308;2023-07-29T17:20:00;23.50;99.90
52397;DHT22;38322;53.108;6.308;2023-07-29T17:22:26;22.90;99.90
52397;DHT22;38322;53.108;6.308;2023-07-29T17:24:52;22.50;99.90
52397;DHT22;38322;53.108;6.308;2023-07-29T17:27:18;22.10;99.90
52397;DHT22;38322;53.108;6.308;2023-07-29T17:29:44;21.90;99.90
52397;DHT22;38322;53.108;6.308;2023-07-29T17:32:09;21.60;99.90
52397;DHT22;38322;53.108;6.308;2023-07-29T17:34:35;21.50;99.90
52397;DHT22;38322;53.108;6.308;2023-07-29T17:37:01;21.30;99.90
52397;DHT22;38322;53.108;6.308;2023-07-29T17:39:27;21.20;99.90
52397;DHT22;38322;53.108;6.308;2023-07-29T17:41:53;21.00;99.90
52397;DHT22;38322;53.108;6.308;2023-07-29T17:44:19;20.90;99.90
52397;DHT22;38322;53.108;6.308;2023-07-29T17:46:44;20.80;99.90
52397;DHT22;38322;53.108;6.308;2023-07-29T17:49:10;20.70;99.90
52397;DHT22;38322;53.108;6.308;2023-07-29T17:51:36;20.50;99.90
52397;DHT22;38322;53.108;6.308;2023-07-29T17:54:02;20.50;99.90
52397;DHT22;38322;53.108;6.308;2023-07-29T17:56:28;20.40;99.90
52397;DHT22;38322;53.108;6.308;2023-07-29T17:58:54;20.30;99.90
52397;DHT22;38322;53.108;6.308;2023-07-29T18:01:20;20.40;99.90
52397;DHT22;38322;53.108;6.308;2023-07-29T18:03:46;20.40;99.90
52397;DHT22;38322;53.108;6.308;2023-07-29T18:06:16;20.60;99.90
52397;DHT22;38322;53.108;6.308;2023-07-29T18:08:42;20.60;99.90
52397;DHT22;38322;53.108;6.308;2023-07-29T18:11:08;20.60;99.90
52397;DHT22;38322;53.108;6.308;2023-07-29T18:13:35;20.50;99.90
52397;DHT22;38322;53.108;6.308;2023-07-29T18:16:01;20.40;99.90
52397;DHT22;38322;53.108;6.308;2023-07-29T18:18:27;20.40;99.90
52397;DHT22;38322;53.108;6.308;2023-07-29T18:20:53;20.40;99.90
52397;DHT22;38322;53.108;6.308;2023-07-29T18:23:18;20.30;99.90
52397;DHT22;38322;53.108;6.308;2023-07-29T18:25:44;20.20;99.90
52397;DHT22;38322;53.108;6.308;2023-07-29T18:28:10;20.20;99.90
52397;DHT22;38322;53.108;6.308;2023-07-29T18:30:36;20.10;99.90
52397;DHT22;38322;53.108;6.308;2023-07-29T18:33:03;20.00;99.90
52397;DHT22;38322;53.108;6.308;2023-07-29T18:35:29;19.90;99.90
52397;DHT22;38322;53.108;6.308;2023-07-29T18:37:55;19.80;99.90
52397;DHT22;38322;53.108;6.308;2023-07-29T18:40:26;19.80;99.90
52397;DHT22;38322;53.108;6.308;2023-07-29T18:42:51;19.80;99.90
52397;DHT22;38322;53.108;6.308;2023-07-29T18:45:17;19.70;99.90
52397;DHT22;38322;53.108;6.308;2023-07-29T18:47:43;19.70;99.90
52397;DHT22;38322;53.108;6.308;2023-07-29T18:50:09;19.60;99.90
52397;DHT22;38322;53.108;6.308;2023-07-29T18:52:35;19.60;99.90
52397;DHT22;38322;53.108;6.308;2023-07-29T18:55:01;19.50;99.90
52397;DHT22;38322;53.108;6.308;2023-07-29T18:57:27;19.40;99.90
52397;DHT22;38322;53.108;6.308;2023-07-29T18:59:53;19.40;99.90
52397;DHT22;38322;53.108;6.308;2023-07-29T19:02:20;19.40;99.90
52397;DHT22;38322;53.108;6.308;2023-07-29T19:04:46;19.40;99.90
52397;DHT22;38322;53.108;6.308;2023-07-29T19:07:14;19.30;99.90
52397;DHT22;38322;53.108;6.308;2023-07-29T19:09:43;19.30;99.90
52397;DHT22;38322;53.108;6.308;2023-07-29T19:12:12;19.30;99.90
52397;DHT22;38322;53.108;6.308;2023-07-29T19:14:41;19.30;99.90
52397;DHT22;38322;53.108;6.308;2023-07-29T19:17:08;19.20;99.90
52397;DHT22;38322;53.108;6.308;2023-07-29T19:19:34;19.10;99.90
52397;DHT22;38322;53.108;6.308;2023-07-29T19:21:59;19.00;99.90
52397;DHT22;38322;53.108;6.308;2023-07-29T19:24:25;19.00;99.90
52397;DHT22;38322;53.108;6.308;2023-07-29T19:26:51;19.00;99.90
52397;DHT22;38322;53.108;6.308;2023-07-29T19:29:17;18.90;99.90
52397;DHT22;38322;53.108;6.308;2023-07-29T19:31:43;18.90;99.90
52397;DHT22;38322;53.108;6.308;2023-07-29T19:34:10;18.80;99.90
52397;DHT22;38322;53.108;6.308;2023-07-29T19:36:36;18.80;99.90
52397;DHT22;38322;53.108;6.308;2023-07-29T19:39:05;18.80;99.90
52397;DHT22;38322;53.108;6.308;2023-07-29T19:41:31;18.70;99.90
52397;DHT22;38322;53.108;6.308;2023-07-29T19:43:57;18.70;99.90
52397;DHT22;38322;53.108;6.308;2023-07-29T19:46:23;18.60;99.90
52397;DHT22;38322;53.108;6.308;2023-07-29T19:48:49;18.60;99.90
52397;DHT22;38322;53.108;6.308;2023-07-29T19:51:18;18.50;99.90
52397;DHT22;38322;53.108;6.308;2023-07-29T19:53:44;18.40;99.90
52397;DHT22;38322;53.108;6.308;2023-07-29T19:56:10;18.40;99.90
52397;DHT22;38322;53.108;6.308;2023-07-29T19:58:36;18.40;99.90
